Time;durP1;ratioP1;P1;durP2;ratioP2;P2;SDS_P1;SDS_P2;PMS_P1;PMS_P2;Temp;Humidity;BMP_temperature;BMP_pressure;BME280_temperature;BME280_humidity;BME280_pressure;Samples;Min_cycle;Max_cycle;Signal;HPM_P1;HPM_P2
2023/07/26 00:00:31;;;;;;;;;;;;;;;;;;;;;
2023/07/26 00:03:58;;;;;;;;;;;;;;;;;;;;;
2023/07/26 00:07:45;;;;;;;;;;;;;;;;;;;;;
2023/07/26 00:14:35;;;;;;;;;;;;;;;;;;;;;
2023/07/26 00:17:42;;;;;;;;;;;;;;;;;;;;;
2023/07/26 00:24:30;;;;;;;;;;;;;;;;;;;;;
2023/07/26 00:31:18;;;;;;;;;;;;;;;18.70;49.34;99224.50;110975;1254;21942;-80
2023/07/26 00:35:59;;;;;;;;;;;;;;;;;;;;;
2023/07/26 00:38:39;;;;;;;;;;;;;;;;;;;;;
2023/07/26 00:42:23;;;;;;;;;;;;;;;18.64;49.82;99235.36;110328;1267;21989;-81
2023/07/26 00:46:01;;;;;;;;;;;;;;;18.62;49.94;99238.81;109613;1271;21996;-80
2023/07/26 01:00:58;;;;;;;;;;;;;;;18.63;50.14;99242.09;110808;1260;547435;-79
2023/07/26 01:04:13;;;;;;;;;;;;;;;;;;;;;
2023/07/26 01:15:54;;;;;;;;;;;;;;;;;;;;;
2023/07/26 01:22:21;;;;;;;;;;;;;;;;;;;;;
2023/07/26 01:43:09;;;;;;;;;;;;;;;;;;;;;
2023/07/26 01:50:04;;;;;;;;;;;;;;;18.38;51.90;99265.28;111288;1257;21944;-81
2023/07/26 01:53:34;;;;;;;;;;;;;;;18.42;51.88;99279.02;110626;1263;21965;-81
2023/07/26 02:02:01;;;;;;;;;;;;;;;;;;;;;
2023/07/26 02:05:16;;;;;;;;;;;;;;;;;;;;;
2023/07/26 02:08:26;;;;;;;;;;;;;;;;;;;;;
2023/07/26 02:11:56;;;;;;;;;;;;;;;18.21;52.48;99268.45;108922;1276;22015;-81
2023/07/26 02:15:04;;;;;;;;;;;;;;;;;;;;;
2023/07/26 02:18:25;;;;;;;;;;;;;;;18.19;53.20;99282.95;109467;1272;24448;-81
2023/07/26 02:21:16;;;;;;;;;;;;;;;18.13;53.15;99276.38;109602;1272;21973;-81
2023/07/26 02:24:41;;;;;;;;;;;;;;;;;;;;;
2023/07/26 02:32:22;;;;;;;;;;;;;;;;;;;;;
2023/07/26 02:50:04;;;;;;;;;;;;;;;;;;;;;
2023/07/26 02:57:30;;;;;;;;;;;;;;;17.74;56.70;99327.23;112399;1245;23137;-80
2023/07/26 03:05:31;;;;;;;;;;;;;;;17.62;57.26;99336.86;110813;1263;21960;-79
2023/07/26 03:09:09;;;;;;;;;;;;;;;;;;;;;
2023/07/26 03:12:01;;;;;;;;;;;;;;;17.58;57.43;99341.77;109237;1275;22750;-79
2023/07/26 03:15:19;;;;;;;;;;;;;;;17.56;57.48;99345.61;109332;1275;22066;-80
2023/07/26 03:18:54;;;;;;;;;;;;;;;17.55;57.63;99353.19;108862;1280;22328;-80
2023/07/26 03:33:31;;;;;;;;;;;;;;;;;;;;;
2023/07/26 03:37:13;;;;;;;;;;;;;;;;;;;;;
2023/07/26 03:45:18;;;;;;;;;;;;;;;17.34;58.27;99378.91;109996;1270;21960;-82
2023/07/26 03:49:41;;;;;;;;;;;;;;;;;;;;;
2023/07/26 03:53:37;;;;;;;;;;;;;;;;;;;;;
2023/07/26 03:57:20;;;;;;;;;;;;;;;;;;;;;
2023/07/26 04:00:21;;;;;;;;;;;;;;;17.23;58.68;99400.85;108202;1287;23609;-80
2023/07/26 04:03:15;;;;;;;;;;;;;;;17.21;58.97;99404.88;108170;1289;23212;-77
2023/07/26 04:09:51;;;;;;;;;;;;;;;17.19;59.17;99412.63;108552;1285;22091;-84
2023/07/26 04:13:05;;;;;;;;;;;;;;;17.11;59.25;99414.84;108874;1281;21994;-82
2023/07/26 04:15:59;;;;;;;;;;;;;;;16.98;59.26;99417.79;109026;1276;21995;-84
2023/07/26 04:18:37;;;;;;;;;;;;;;;16.80;59.39;99416.70;108815;1283;21984;-83
2023/07/26 04:21:35;;;;;;;;;;;;;;;;;;;;;
2023/07/26 04:24:22;;;;;;;;;;;;;;;16.61;60.51;99426.60;108889;1277;21968;-82
2023/07/26 04:30:52;;;;;;;;;;;;;;;16.34;59.78;99429.77;108806;1283;22303;-84
2023/07/26 04:33:53;;;;;;;;;;;;;;;;;;;;;
2023/07/26 04:39:54;;;;;;;;;;;;;;;15.92;61.39;99432.39;108627;1287;23730;-81
2023/07/26 04:43:48;;;;;;;;;;;;;;;;;;;;;
2023/07/26 04:46:16;;;;;;;;;;;;;;;15.76;62.59;99448.45;109353;1284;24366;-84
2023/07/26 04:52:38;;;;;;;;;;;;;;;15.79;64.28;99454.92;108452;1289;21981;-83
2023/07/26 04:55:29;;;;;;;;;;;;;;;15.87;64.87;99449.58;108702;1283;21991;-82
2023/07/26 04:58:13;;;;;;;;;;;;;;;15.90;64.65;99448.83;108897;1283;22039;-82
2023/07/26 05:00:54;;;;;;;;;;;;;;;15.87;63.58;99452.55;108885;1283;22029;-82
2023/07/26 05:04:03;;;;;;;;;;;;;;;15.81;63.80;99453.71;108858;1283;23015;-81
2023/07/26 05:06:44;;;;;;;;;;;;;;;15.77;64.20;99451.33;108875;1283;21981;-83
2023/07/26 05:09:19;;;;;;;;;;;;;;;15.75;64.30;99456.95;108784;1283;22193;-82
2023/07/26 05:12:40;;;;;;;;;;;;;;;;;;;;;
2023/07/26 05:15:54;;;;;;;;;;;;;;;15.83;64.92;99467.94;108719;1284;22066;-82
2023/07/26 05:18:58;;;;;;;;;;;;;;;;;;;;;
2023/07/26 05:22:11;;;;;;;;;;;;;;;15.84;64.71;99465.40;109018;1280;21981;-81
2023/07/26 05:28:55;;;;;;;;;;;;;;;15.93;64.90;99473.54;109123;1274;23696;-84
2023/07/26 05:31:50;;;;;;;;;;;;;;;15.98;64.68;99473.30;109564;1274;21963;-83
2023/07/26 05:34:51;;;;;;;;;;;;;;;16.05;64.66;99477.77;110177;1268;23697;-83
2023/07/26 05:38:29;;;;;;;;;;;;;;;;;;;;;
2023/07/26 05:41:20;;;;;;;;;;;;;;;16.23;64.45;99492.22;109600;1274;22755;-82
2023/07/26 05:44:27;;;;;;;;;;;;;;;16.30;64.28;99495.68;109134;1280;21974;-83
2023/07/26 05:47:10;;;;;;;;;;;;;;;16.37;64.39;99498.01;109129;1280;22427;-84
2023/07/26 05:49:48;;;;;;;;;;;;;;;16.43;64.33;99506.16;108850;1284;22310;-83
2023/07/26 05:53:03;;;;;;;;;;;;;;;16.40;64.19;99495.65;109026;1281;23011;-84
2023/07/26 05:56:15;;;;;;;;;;;;;;;16.45;64.09;99497.53;108930;1281;21993;-82
2023/07/26 05:58:54;;;;;;;;;;;;;;;16.58;64.12;99511.85;108996;1281;22095;-79
2023/07/26 06:05:40;;;;;;;;;;;;;;;;;;;;;
2023/07/26 06:09:35;;;;;;;;;;;;;;;16.86;64.16;99522.42;108825;1276;21970;-78
2023/07/26 06:13:16;;;;;;;;;;;;;;;16.96;64.18;99527.59;108713;1280;21973;-79
2023/07/26 06:16:15;;;;;;;;;;;;;;;17.05;63.90;99530.95;108677;1283;22005;-80
2023/07/26 06:18:51;;;;;;;;;;;;;;;17.11;63.92;99531.86;108545;1283;21991;-79
2023/07/26 06:21:57;;;;;;;;;;;;;;;;;;;;;
2023/07/26 06:28:37;;;;;;;;;;;;;;;17.26;63.62;99527.23;108091;1289;21981;-78
2023/07/26 06:31:40;;;;;;;;;;;;;;;17.32;63.14;99544.52;108338;1289;22005;-79
2023/07/26 06:34:41;;;;;;;;;;;;;;;17.29;63.17;99550.66;108195;1289;22116;-78
2023/07/26 06:38:13;;;;;;;;;;;;;;;;;;;;;
2023/07/26 06:41:08;;;;;;;;;;;;;;;17.20;63.09;99563.69;107481;1295;21994;-80
2023/07/26 06:48:05;;;;;;;;;;;;;;;17.18;63.58;99578.81;108124;1290;21985;-79
2023/07/26 06:51:15;;;;;;;;;;;;;;;;;;;;;
2023/07/26 06:54:11;;;;;;;;;;;;;;;;;;;;;
2023/07/26 06:57:40;;;;;;;;;;;;;;;;;;;;;
2023/07/26 07:01:44;;;;;;;;;;;;;;;17.03;63.54;99589.86;108502;1280;23014;-78
2023/07/26 07:05:25;;;;;;;;;;;;;;;16.96;63.59;99597.55;108352;1288;23068;-79
2023/07/26 07:07:52;;;;;;;;;;;;;;;16.92;63.79;99601.56;108341;1288;21996;-79
2023/07/26 07:10:46;;;;;;;;;;;;;;;16.90;64.05;99606.42;108206;1288;23680;-79
2023/07/26 07:13:59;;;;;;;;;;;;;;;16.81;64.00;99598.02;108439;1288;22004;-79
2023/07/26 07:17:11;;;;;;;;;;;;;;;16.86;64.28;99612.70;108392;1285;23694;-78
2023/07/26 07:20:38;;;;;;;;;;;;;;;16.86;64.55;99619.58;108533;1285;22050;-80
2023/07/26 07:23:36;;;;;;;;;;;;;;;;;;;;;
2023/07/26 07:26:30;;;;;;;;;;;;;;;16.83;64.82;99626.10;108711;1285;22455;-79
2023/07/26 07:29:03;;;;;;;;;;;;;;;16.81;64.82;99629.41;108735;1282;22920;-79
2023/07/26 07:31:55;;;;;;;;;;;;;;;16.83;65.13;99630.38;108553;1283;21976;-80
2023/07/26 07:34:55;;;;;;;;;;;;;;;16.85;65.33;99634.05;108719;1285;22188;-79
2023/07/26 07:37:51;;;;;;;;;;;;;;;16.86;65.27;99635.77;108752;1285;22010;-82
2023/07/26 07:40:32;;;;;;;;;;;;;;;16.81;65.41;99640.11;108721;1280;22886;-79
2023/07/26 07:43:47;;;;;;;;;;;;;;;16.76;65.34;99638.34;109608;1273;21968;-80
2023/07/26 07:46:44;;;;;;;;;;;;;;;;;;;;;
2023/07/26 07:50:03;;;;;;;;;;;;;;;16.69;65.45;99640.16;109747;1273;21960;-81
2023/07/26 07:52:44;;;;;;;;;;;;;;;16.66;65.64;99640.91;109367;1272;23728;-79
2023/07/26 07:55:21;;;;;;;;;;;;;;;16.65;65.72;99644.68;109313;1276;23045;-79
2023/07/26 07:58:26;;;;;;;;;;;;;;;16.62;65.75;99644.91;108934;1277;21976;-79
2023/07/26 08:01:10;;;;;;;;;;;;;;;16.58;65.88;99648.48;108683;1281;21974;-80
2023/07/26 08:03:51;;;;;;;;;;;;;;;16.56;65.94;99646.52;109246;1275;21976;-79
2023/07/26 08:06:40;;;;;;;;;;;;;;;16.56;66.30;99650.56;109360;1275;23618;-81
2023/07/26 08:09:43;;;;;;;;;;;;;;;16.57;66.43;99654.23;108960;1272;23039;-78
2023/07/26 08:12:42;;;;;;;;;;;;;;;16.56;66.71;99654.27;109320;1271;22285;-85
2023/07/26 08:15:58;;;;;;;;;;;;;;;16.57;66.86;99655.80;109381;1274;21973;-80
2023/07/26 08:18:46;;;;;;;;;;;;;;;16.57;66.95;99655.91;109579;1274;21968;-80
2023/07/26 08:22:17;;;;;;;;;;;;;;;16.58;66.95;99657.07;109052;1279;21936;-84
2023/07/26 08:25:07;;;;;;;;;;;;;;;16.58;66.98;99658.66;109114;1279;21983;-80
2023/07/26 08:27:53;;;;;;;;;;;;;;;;;;;;;
2023/07/26 08:30:41;;;;;;;;;;;;;;;16.59;66.99;99663.34;108716;1285;23084;-79
2023/07/26 08:33:29;;;;;;;;;;;;;;;16.51;66.70;99659.88;108530;1288;22024;-80
2023/07/26 08:36:13;;;;;;;;;;;;;;;16.49;66.47;99670.60;108572;1288;22432;-80
2023/07/26 08:39:17;;;;;;;;;;;;;;;16.43;66.40;99671.91;108828;1282;22043;-83
2023/07/26 08:42:12;;;;;;;;;;;;;;;16.37;66.37;99674.45;108925;1284;21997;-83
2023/07/26 08:45:00;;;;;;;;;;;;;;;;;;;;;
2023/07/26 08:47:51;;;;;;;;;;;;;;;16.39;66.63;99676.40;109190;1280;23738;-85
2023/07/26 08:50:46;;;;;;;;;;;;;;;16.45;66.81;99677.42;109315;1275;21938;-83
2023/07/26 08:53:41;;;;;;;;;;;;;;;16.48;66.82;99681.01;110001;1268;23048;-84
2023/07/26 08:56:15;;;;;;;;;;;;;;;16.51;66.84;99681.36;110114;1268;22671;-84
2023/07/26 08:58:51;;;;;;;;;;;;;;;16.51;66.61;99683.27;110244;1268;21969;-82
2023/07/26 09:01:29;;;;;;;;;;;;;;;16.48;66.51;99688.00;110015;1266;22017;-82
2023/07/26 09:04:25;;;;;;;;;;;;;;;16.46;66.64;99685.77;110039;1268;22834;-79
2023/07/26 09:07:10;;;;;;;;;;;;;;;16.40;66.38;99684.90;109611;1273;21968;-81
2023/07/26 09:10:01;;;;;;;;;;;;;;;16.39;66.80;99685.56;109674;1273;21968;-80
2023/07/26 09:12:34;;;;;;;;;;;;;;;16.39;66.80;99689.05;109613;1273;21967;-84
2023/07/26 09:15:13;;;;;;;;;;;;;;;16.29;66.71;99684.98;109690;1265;23066;-83
2023/07/26 09:17:52;;;;;;;;;;;;;;;16.37;66.85;99701.14;109649;1273;23104;-81
2023/07/26 09:20:38;;;;;;;;;;;;;;;16.35;66.92;99708.33;109236;1277;21972;-82
2023/07/26 09:23:15;;;;;;;;;;;;;;;16.36;67.25;99704.92;109263;1277;21986;-81
2023/07/26 09:25:53;;;;;;;;;;;;;;;16.41;67.03;99707.86;109586;1272;23049;-82
2023/07/26 09:28:25;;;;;;;;;;;;;;;16.40;67.09;99711.61;109340;1276;24309;-84
2023/07/26 09:31:06;;;;;;;;;;;;;;;16.40;67.13;99714.79;109500;1274;21965;-83
2023/07/26 09:34:26;;;;;;;;;;;;;;;16.39;67.17;99716.09;109264;1276;21997;-85
2023/07/26 09:37:02;;;;;;;;;;;;;;;16.38;67.25;99714.55;109221;1281;22371;-84
2023/07/26 09:40:06;;;;;;;;;;;;;;;16.41;67.59;99710.52;109361;1276;22266;-84
2023/07/26 09:42:55;;;;;;;;;;;;;;;16.49;67.67;99713.47;109443;1276;23715;-85
2023/07/26 09:46:20;;;;;;;;;;;;;;;16.55;67.73;99714.79;109264;1276;21966;-86
2023/07/26 09:49:05;;;;;;;;;;;;;;;16.58;67.70;99714.35;109471;1279;22039;-84
2023/07/26 09:52:07;;;;;;;;;;;;;;;16.66;67.96;99714.48;109374;1279;21992;-84
2023/07/26 09:55:14;;;;;;;;;;;;;;;;;;;;;
2023/07/26 09:58:23;;;;;;;;;;;;;;;16.73;67.81;99700.28;109583;1275;21986;-86
2023/07/26 10:01:14;;;;;;;;;;;;;;;16.85;67.85;99712.97;109257;1281;21970;-82
2023/07/26 10:04:37;;;;;;;;;;;;;;;16.89;67.74;99710.41;108961;1284;22009;-84
2023/07/26 10:07:16;;;;;;;;;;;;;;;16.89;67.48;99707.53;109050;1280;21979;-83
2023/07/26 10:10:21;;;;;;;;;;;;;;;16.97;67.71;99709.64;109054;1280;22021;-81
2023/07/26 10:13:36;;;;;;;;;;;;;;;17.05;67.55;99712.18;109291;1280;23073;-82
2023/07/26 10:16:32;;;;;;;;;;;;;;;17.13;67.59;99713.47;108853;1285;23204;-83
2023/07/26 10:19:30;;;;;;;;;;;;;;;17.24;67.43;99718.26;109126;1280;21976;-82
2023/07/26 10:22:44;;;;;;;;;;;;;;;17.33;66.91;99721.28;109062;1279;23069;-83
2023/07/26 10:26:03;;;;;;;;;;;;;;;17.43;66.62;99726.88;109151;1279;21984;-81
2023/07/26 10:29:10;;;;;;;;;;;;;;;17.49;66.23;99732.96;109191;1278;22038;-82
2023/07/26 10:32:24;;;;;;;;;;;;;;;17.59;66.18;99733.60;109449;1274;21984;-82
2023/07/26 10:35:07;;;;;;;;;;;;;;;17.67;65.94;99734.38;109716;1272;22998;-82
2023/07/26 10:38:25;;;;;;;;;;;;;;;17.71;65.68;99731.77;109454;1276;21983;-81
2023/07/26 10:41:31;;;;;;;;;;;;;;;17.79;65.54;99726.09;108869;1282;21985;-82
2023/07/26 10:45:06;;;;;;;;;;;;;;;17.88;65.28;99719.23;109184;1281;22000;-82
2023/07/26 10:49:30;;;;;;;;;;;;;;;;;;;;;
2023/07/26 10:52:40;;;;;;;;;;;;;;;18.11;64.78;99719.36;108816;1287;22013;-82
2023/07/26 10:56:04;;;;;;;;;;;;;;;18.18;64.58;99718.27;108789;1281;22404;-84
2023/07/26 10:59:16;;;;;;;;;;;;;;;18.33;64.69;99721.64;108239;1292;22525;-82
2023/07/26 11:02:14;;;;;;;;;;;;;;;18.50;64.71;99723.08;107861;1296;22084;-79
2023/07/26 11:05:18;;;;;;;;;;;;;;;;;;;;;
2023/07/26 11:08:49;;;;;;;;;;;;;;;;;;;;;
2023/07/26 11:11:53;;;;;;;;;;;;;;;18.88;63.64;99692.91;106797;1303;22011;-78
2023/07/26 11:14:24;;;;;;;;;;;;;;;19.02;62.97;99697.77;106950;1303;23050;-79
2023/07/26 11:16:54;;;;;;;;;;;;;;;19.08;62.59;99705.20;106733;1303;23765;-81
2023/07/26 11:19:31;;;;;;;;;;;;;;;19.04;61.71;99705.16;107271;1299;23101;-79
2023/07/26 11:22:04;;;;;;;;;;;;;;;18.99;61.56;99707.03;107363;1299;22424;-79
2023/07/26 11:24:36;;;;;;;;;;;;;;;18.92;61.31;99707.21;107365;1299;23076;-80
2023/07/26 11:30:43;;;;;;;;;;;;;;;18.69;61.35;99707.27;107637;1299;23420;-78
2023/07/26 11:33:10;;;;;;;;;;;;;;;18.58;61.31;99709.50;107479;1297;21994;-77
2023/07/26 11:36:04;;;;;;;;;;;;;;;18.47;61.44;99716.32;107677;1290;22064;-79
2023/07/26 11:39:07;;;;;;;;;;;;;;;18.32;61.52;99716.65;108147;1286;24308;-78
2023/07/26 11:42:00;;;;;;;;;;;;;;;18.22;61.92;99714.80;108430;1281;21991;-79
2023/07/26 11:45:03;;;;;;;;;;;;;;;18.17;62.30;99707.66;108634;1280;22224;-79
2023/07/26 11:48:07;;;;;;;;;;;;;;;18.13;62.62;99703.50;108859;1271;23241;-79
2023/07/26 11:51:21;;;;;;;;;;;;;;;18.12;63.34;99699.92;109483;1271;21982;-77
2023/07/26 11:54:09;;;;;;;;;;;;;;;18.25;63.77;99712.59;108841;1280;22228;-80
2023/07/26 11:57:28;;;;;;;;;;;;;;;18.27;63.86;99701.33;108913;1280;22150;-79
2023/07/26 12:00:49;;;;;;;;;;;;;;;18.28;63.48;99705.17;108971;1275;22331;-79
2023/07/26 12:04:01;;;;;;;;;;;;;;;18.31;63.12;99719.34;109157;1273;22465;-79
2023/07/26 12:07:05;;;;;;;;;;;;;;;18.28;63.24;99719.80;108963;1277;21972;-78
2023/07/26 12:10:02;;;;;;;;;;;;;;;18.19;63.26;99726.70;109259;1273;23779;-78
2023/07/26 12:12:57;;;;;;;;;;;;;;;17.95;62.80;99728.17;109518;1268;22052;-79
2023/07/26 12:16:19;;;;;;;;;;;;;;;17.75;62.74;99730.98;110005;1268;21995;-81
2023/07/26 12:19:00;;;;;;;;;;;;;;;17.61;63.32;99729.04;110214;1268;23690;-80
2023/07/26 12:21:36;;;;;;;;;;;;;;;17.58;63.92;99722.27;110343;1268;24378;-80
2023/07/26 12:24:09;;;;;;;;;;;;;;;17.63;64.48;99721.64;110403;1264;21972;-80
2023/07/26 12:26:51;;;;;;;;;;;;;;;17.75;64.81;99727.45;110924;1262;21966;-79
2023/07/26 12:29:28;;;;;;;;;;;;;;;17.86;64.68;99731.15;110818;1262;21958;-80
2023/07/26 12:32:13;;;;;;;;;;;;;;;;;;;;;
2023/07/26 12:34:55;;;;;;;;;;;;;;;18.01;64.05;99736.15;111000;1261;22351;-82
2023/07/26 12:37:52;;;;;;;;;;;;;;;18.18;63.90;99728.67;110848;1262;22042;-79
2023/07/26 12:41:04;;;;;;;;;;;;;;;18.37;63.67;99725.09;110882;1262;22018;-81
2023/07/26 12:44:48;;;;;;;;;;;;;;;18.57;63.35;99725.53;109503;1274;22031;-80
2023/07/26 12:48:03;;;;;;;;;;;;;;;;;;;;;
2023/07/26 12:55:30;;;;;;;;;;;;;;;19.50;61.56;99725.11;108386;1289;22335;-80
2023/07/26 12:58:58;;;;;;;;;;;;;;;19.73;60.35;99726.17;108408;1290;23615;-88
2023/07/26 13:02:40;;;;;;;;;;;;;;;;;;;;;
2023/07/26 13:06:03;;;;;;;;;;;;;;;;;;;;;
2023/07/26 13:08:46;;;;;;;;;;;;;;;20.12;56.72;99725.12;108914;1284;23151;-87
2023/07/26 13:11:13;;;;;;;;;;;;;;;20.15;56.07;99722.20;108760;1284;23807;-81
2023/07/26 13:14:09;;;;;;;;;;;;;;;20.16;55.87;99721.37;108686;1284;23644;-81
2023/07/26 13:17:19;;;;;;;;;;;;;;;20.16;55.76;99719.16;108881;1284;21999;-83
2023/07/26 13:20:30;;;;;;;;;;;;;;;;;;;;;
2023/07/26 13:23:40;;;;;;;;;;;;;;;;;;;;;
2023/07/26 13:30:29;;;;;;;;;;;;;;;19.69;55.60;99743.09;108948;1281;21989;-84
2023/07/26 13:33:40;;;;;;;;;;;;;;;19.55;55.38;99749.89;109029;1281;21972;-83
2023/07/26 13:36:29;;;;;;;;;;;;;;;19.39;55.15;99748.95;108900;1281;21987;-84
2023/07/26 13:39:46;;;;;;;;;;;;;;;19.25;55.08;99748.94;109124;1281;21981;-87
2023/07/26 13:42:31;;;;;;;;;;;;;;;19.11;55.26;99747.95;109166;1282;24318;-89
2023/07/26 13:45:35;;;;;;;;;;;;;;;19.08;55.81;99748.05;109071;1284;22030;-87
2023/07/26 13:48:59;;;;;;;;;;;;;;;19.06;55.76;99756.80;109069;1284;22304;-89
2023/07/26 13:52:18;;;;;;;;;;;;;;;19.02;55.86;99758.73;108947;1288;22929;-87
2023/07/26 13:55:32;;;;;;;;;;;;;;;19.05;55.91;99760.23;108868;1288;22294;-88
2023/07/26 13:59:19;;;;;;;;;;;;;;;19.09;55.67;99763.30;109260;1281;22139;-83
2023/07/26 14:02:26;;;;;;;;;;;;;;;;;;;;;
2023/07/26 14:06:14;;;;;;;;;;;;;;;;;;;;;
2023/07/26 14:10:28;;;;;;;;;;;;;;;19.35;53.12;99753.38;109451;1279;22002;-83
2023/07/26 14:14:32;;;;;;;;;;;;;;;19.45;52.41;99754.31;109160;1284;23628;-81
2023/07/26 14:18:20;;;;;;;;;;;;;;;19.58;51.92;99754.79;108932;1285;22005;-82
2023/07/26 14:25:39;;;;;;;;;;;;;;;;;;;;;
2023/07/26 14:39:06;;;;;;;;;;;;;;;20.12;50.66;99752.11;108640;1287;547590;-83
2023/07/26 14:42:12;;;;;;;;;;;;;;;20.33;50.22;99745.85;110596;1263;286427;-81
2023/07/26 14:45:01;;;;;;;;;;;;;;;20.39;49.53;99743.73;110650;1264;24326;-81
2023/07/26 14:48:15;;;;;;;;;;;;;;;20.47;49.31;99743.79;110708;1263;21976;-81
2023/07/26 14:51:31;;;;;;;;;;;;;;;20.52;48.38;99741.05;110024;1270;21959;-81
2023/07/26 14:54:32;;;;;;;;;;;;;;;20.53;47.81;99738.10;109595;1274;21994;-80
2023/07/26 14:57:14;;;;;;;;;;;;;;;20.58;47.57;99735.54;109039;1282;21992;-81
2023/07/26 15:00:12;;;;;;;;;;;;;;;20.62;47.31;99742.81;109481;1275;22841;-80
2023/07/26 15:03:04;;;;;;;;;;;;;;;20.67;47.05;99744.63;109572;1276;21970;-80
2023/07/26 15:06:03;;;;;;;;;;;;;;;20.67;46.67;99742.34;109020;1283;22071;-80
2023/07/26 15:08:38;;;;;;;;;;;;;;;20.67;46.80;99744.98;109259;1278;21955;-81
2023/07/26 15:11:14;;;;;;;;;;;;;;;20.73;46.95;99743.08;109414;1278;23002;-81
2023/07/26 15:14:12;;;;;;;;;;;;;;;20.76;46.60;99739.27;109622;1268;22258;-79
2023/07/26 15:16:59;;;;;;;;;;;;;;;20.78;46.76;99734.99;110180;1267;21970;-83
2023/07/26 15:19:41;;;;;;;;;;;;;;;20.83;47.33;99739.15;110561;1267;23731;-88
2023/07/26 15:22:37;;;;;;;;;;;;;;;20.87;47.33;99737.75;110720;1263;21966;-87
2023/07/26 15:25:27;;;;;;;;;;;;;;;20.87;47.07;99743.53;110664;1263;22398;-83
2023/07/26 15:28:53;;;;;;;;;;;;;;;20.82;46.68;99744.93;109937;1269;21962;-84
2023/07/26 15:32:50;;;;;;;;;;;;;;;20.80;46.72;99745.10;109950;1269;21973;-84
2023/07/26 15:36:54;;;;;;;;;;;;;;;20.77;45.95;99742.03;109305;1280;23001;-83
2023/07/26 15:40:30;;;;;;;;;;;;;;;;;;;;;
2023/07/26 15:48:35;;;;;;;;;;;;;;;;;;;;;
2023/07/26 15:58:26;;;;;;;;;;;;;;;;;;;;;
2023/07/26 16:06:42;;;;;;;;;;;;;;;19.37;52.91;99728.33;107592;1308;22022;-83
2023/07/26 16:09:48;;;;;;;;;;;;;;;19.26;53.55;99725.14;107298;1307;22022;-82
2023/07/26 16:12:34;;;;;;;;;;;;;;;19.19;54.44;99724.67;106947;1307;21965;-90
2023/07/26 16:18:45;;;;;;;;;;;;;;;19.13;55.70;99728.22;106893;1307;22214;-86
2023/07/26 16:21:23;;;;;;;;;;;;;;;19.16;56.05;99730.09;107001;1307;22050;-84
2023/07/26 16:23:54;;;;;;;;;;;;;;;19.15;56.29;99728.98;106649;1307;23667;-88
2023/07/26 16:26:35;;;;;;;;;;;;;;;19.07;56.36;99726.09;106957;1304;22000;-88
2023/07/26 16:29:16;;;;;;;;;;;;;;;18.94;56.63;99726.40;107208;1304;22029;-89
2023/07/26 16:32:42;;;;;;;;;;;;;;;;;;;;;
2023/07/26 16:35:54;;;;;;;;;;;;;;;;;;;;;
2023/07/26 16:39:39;;;;;;;;;;;;;;;;;;;;;
2023/07/26 16:43:50;;;;;;;;;;;;;;;;;;;;;
2023/07/26 16:53:45;;;;;;;;;;;;;;;18.38;60.17;99740.84;107220;1309;22057;-89
2023/07/26 16:56:17;;;;;;;;;;;;;;;18.44;59.98;99739.85;107541;1305;21942;-86
2023/07/26 16:59:15;;;;;;;;;;;;;;;18.48;59.59;99745.83;107706;1305;22006;-88
2023/07/26 17:01:46;;;;;;;;;;;;;;;18.49;59.73;99742.24;107347;1305;22014;-87
2023/07/26 17:04:17;;;;;;;;;;;;;;;18.50;59.75;99744.80;107386;1305;21996;-86
2023/07/26 17:06:53;;;;;;;;;;;;;;;18.47;59.50;99742.39;107438;1302;21996;-84
2023/07/26 17:09:28;;;;;;;;;;;;;;;18.43;60.10;99742.88;107188;1304;21974;-85
2023/07/26 17:11:57;;;;;;;;;;;;;;;18.41;60.45;99744.98;107472;1300;23895;-86
2023/07/26 17:14:32;;;;;;;;;;;;;;;18.43;60.70;99750.64;107841;1296;22028;-87
2023/07/26 17:17:35;;;;;;;;;;;;;;;18.46;60.61;99752.52;107913;1296;22012;-85
2023/07/26 17:20:44;;;;;;;;;;;;;;;18.46;60.26;99753.95;108323;1291;23628;-86
2023/07/26 17:23:36;;;;;;;;;;;;;;;18.45;60.59;99754.02;108560;1288;21980;-83
2023/07/26 17:26:43;;;;;;;;;;;;;;;18.43;60.25;99761.90;108264;1290;22094;-81
2023/07/26 17:29:43;;;;;;;;;;;;;;;18.41;60.52;99766.16;108369;1294;22766;-81
2023/07/26 17:32:34;;;;;;;;;;;;;;;;;;;;;
2023/07/26 17:35:30;;;;;;;;;;;;;;;18.45;60.94;99771.30;108332;1292;22400;-82
2023/07/26 17:38:30;;;;;;;;;;;;;;;18.48;60.86;99773.50;108405;1292;23647;-83
2023/07/26 17:41:05;;;;;;;;;;;;;;;18.55;61.24;99767.14;108133;1294;23084;-83
2023/07/26 17:43:49;;;;;;;;;;;;;;;18.59;61.11;99766.31;107629;1295;22807;-81
2023/07/26 17:46:37;;;;;;;;;;;;;;;18.57;60.87;99763.81;108171;1292;22031;-83
2023/07/26 17:49:55;;;;;;;;;;;;;;;18.58;60.89;99765.67;108464;1287;22012;-82
2023/07/26 17:52:45;;;;;;;;;;;;;;;18.55;60.52;99765.68;108323;1291;22081;-83
2023/07/26 17:55:51;;;;;;;;;;;;;;;18.47;60.26;99766.33;108433;1292;21995;-81
2023/07/26 18:02:02;;;;;;;;;;;;;;;18.30;60.89;99775.80;108389;1290;23077;-81
2023/07/26 18:04:46;;;;;;;;;;;;;;;18.26;61.14;99777.55;108524;1284;22002;-82
2023/07/26 18:07:25;;;;;;;;;;;;;;;18.16;61.10;99782.36;109003;1284;22096;-85
2023/07/26 18:10:12;;;;;;;;;;;;;;;18.04;61.29;99782.02;109126;1277;21947;-84
2023/07/26 18:13:12;;;;;;;;;;;;;;;17.96;61.56;99780.23;109379;1277;21989;-84
2023/07/26 18:16:20;;;;;;;;;;;;;;;17.88;61.72;99781.34;109543;1270;23036;-84
2023/07/26 18:19:23;;;;;;;;;;;;;;;17.82;62.00;99786.70;110060;1270;22450;-84
2023/07/26 18:22:29;;;;;;;;;;;;;;;17.80;62.30;99788.81;109954;1270;23024;-81
2023/07/26 18:25:09;;;;;;;;;;;;;;;17.80;62.51;99787.77;109829;1270;21974;-81
2023/07/26 18:28:13;;;;;;;;;;;;;;;17.77;62.39;99791.14;109899;1270;22428;-83
2023/07/26 18:31:12;;;;;;;;;;;;;;;17.72;62.44;99792.20;109853;1270;21981;-83
2023/07/26 18:33:56;;;;;;;;;;;;;;;17.70;62.49;99795.76;109474;1275;21987;-83
2023/07/26 18:36:51;;;;;;;;;;;;;;;17.64;62.42;99798.33;109435;1275;22411;-83
2023/07/26 18:40:14;;;;;;;;;;;;;;;17.54;62.63;99799.02;109469;1275;22066;-82
2023/07/26 18:43:32;;;;;;;;;;;;;;;17.47;62.90;99799.06;109578;1275;21989;-83
2023/07/26 18:46:14;;;;;;;;;;;;;;;17.41;63.24;99800.58;109361;1275;22006;-82
2023/07/26 18:52:44;;;;;;;;;;;;;;;17.27;63.74;99809.00;108850;1285;22367;-82
2023/07/26 18:56:04;;;;;;;;;;;;;;;17.16;64.25;99811.52;108758;1285;22504;-83
2023/07/26 18:59:18;;;;;;;;;;;;;;;17.09;64.44;99808.38;108796;1285;24360;-83
2023/07/26 19:02:40;;;;;;;;;;;;;;;17.05;64.56;99808.68;108940;1285;22383;-84
2023/07/26 19:06:27;;;;;;;;;;;;;;;17.00;65.01;99811.14;108388;1291;22476;-82
2023/07/26 19:09:31;;;;;;;;;;;;;;;16.97;65.40;99810.86;108248;1291;22000;-82
2023/07/26 19:12:44;;;;;;;;;;;;;;;16.92;65.44;99808.54;108440;1291;22074;-82
2023/07/26 19:15:48;;;;;;;;;;;;;;;16.88;65.63;99810.46;108075;1296;23166;-85
2023/07/26 19:18:37;;;;;;;;;;;;;;;16.82;65.80;99815.93;107886;1300;24567;-82
2023/07/26 19:21:44;;;;;;;;;;;;;;;16.76;66.11;99815.79;107052;1305;22008;-80
2023/07/26 19:24:40;;;;;;;;;;;;;;;16.69;66.23;99815.82;107412;1299;22000;-82
2023/07/26 19:27:20;;;;;;;;;;;;;;;16.62;66.50;99816.33;107410;1299;22067;-83
2023/07/26 19:30:03;;;;;;;;;;;;;;;16.57;66.86;99819.45;107421;1297;22279;-84
2023/07/26 19:32:43;;;;;;;;;;;;;;;16.54;67.07;99818.59;107801;1292;22479;-81
2023/07/26 19:35:28;;;;;;;;;;;;;;;16.54;67.36;99821.96;108046;1294;23628;-83
2023/07/26 19:38:48;;;;;;;;;;;;;;;16.52;67.64;99824.58;108146;1294;21992;-82
2023/07/26 19:41:46;;;;;;;;;;;;;;;16.53;67.62;99833.98;108205;1294;22236;-81
2023/07/26 19:44:36;;;;;;;;;;;;;;;16.58;67.93;99838.02;108435;1288;21983;-80
2023/07/26 19:47:20;;;;;;;;;;;;;;;16.65;68.04;99848.60;108439;1290;21992;-82
2023/07/26 19:50:19;;;;;;;;;;;;;;;16.72;68.13;99856.88;108498;1290;23066;-83
2023/07/26 19:53:23;;;;;;;;;;;;;;;16.76;67.87;99864.29;108346;1287;21988;-83
2023/07/26 19:56:13;;;;;;;;;;;;;;;16.81;67.61;99866.64;108597;1287;22017;-82
2023/07/26 19:59:33;;;;;;;;;;;;;;;;;;;;;
2023/07/26 20:02:59;;;;;;;;;;;;;;;16.85;66.90;99872.35;108663;1287;22770;-81
2023/07/26 20:06:21;;;;;;;;;;;;;;;16.88;66.16;99881.09;108794;1285;22054;-81
2023/07/26 20:09:08;;;;;;;;;;;;;;;16.89;65.62;99889.61;108813;1285;23728;-83
2023/07/26 20:12:35;;;;;;;;;;;;;;;16.90;64.99;99896.56;109119;1280;21982;-83
2023/07/26 20:15:16;;;;;;;;;;;;;;;16.92;64.80;99900.46;109138;1274;22467;-82
2023/07/26 20:18:17;;;;;;;;;;;;;;;16.92;64.85;99906.77;109421;1270;21965;-81
2023/07/26 20:21:25;;;;;;;;;;;;;;;;;;;;;
2023/07/26 20:24:00;;;;;;;;;;;;;;;16.90;64.26;99911.54;109524;1274;21988;-82